createdAt,value
2019-04-10T00:02:50.138Z,0.42
2019-04-10T00:05:54.180Z,0.44
2019-04-10T00:08:58.820Z,0.48
2019-04-10T00:12:02.426Z,0.53
2019-04-10T00:15:07.244Z,0.57
2019-04-10T00:18:10.810Z,0.63
2019-04-10T00:21:15.457Z,0.68
2019-04-10T00:24:19.773Z,0.70
2019-04-10T00:27:23.520Z,0.75
2019-04-10T00:30:27.220Z,0.76
2019-04-10T00:33:30.847Z,0.80
2019-04-10T00:36:35.226Z,0.83
2019-04-10T00:39:39.136Z,0.85
2019-04-10T00:42:43.286Z,0.88
2019-04-10T00:45:47.102Z,0.90
2019-04-10T00:48:50.704Z,0.93
2019-04-10T00:51:55.376Z,0.93
2019-04-10T00:54:59.610Z,0.96
2019-04-10T00:58:03.664Z,0.97
2019-04-10T01:01:07.831Z,0.99
2019-04-10T01:04:12.383Z,1.01
2019-04-10T01:07:16.871Z,1.02
2019-04-10T01:10:22.012Z,1.03
2019-04-10T01:13:25.688Z,1.04
2019-04-10T01:16:29.452Z,1.07
2019-04-10T01:19:34.220Z,1.05
2019-04-10T01:22:39.047Z,1.08
2019-04-10T01:25:42.995Z,1.10
2019-04-10T01:28:47.114Z,1.11
2019-04-10T01:31:51.233Z,1.13
2019-04-10T01:34:55.928Z,1.13
2019-04-10T01:38:01.457Z,1.16
2019-04-10T01:41:05.766Z,1.18
2019-04-10T01:44:09.448Z,1.20
2019-04-10T01:47:13.239Z,1.21
2019-04-10T01:50:17.942Z,1.21
2019-04-10T01:53:21.852Z,1.22
2019-04-10T01:56:31.683Z,1.22
2019-04-10T01:59:32.177Z,1.24
2019-04-10T02:02:39.924Z,1.27
2019-04-10T02:05:43.597Z,1.29
2019-04-10T02:08:47.838Z,1.30
2019-04-10T02:11:52.364Z,1.30
2019-04-10T02:14:56.580Z,1.31
2019-04-10T02:18:01.278Z,1.31
2019-04-10T02:21:04.331Z,1.31
2019-04-10T02:24:09.028Z,1.30
2019-04-10T02:27:12.851Z,1.30
2019-04-10T02:30:19.150Z,1.32
2019-04-10T02:33:23.247Z,1.32
2019-04-10T02:36:29.231Z,1.33
2019-04-10T02:39:38.170Z,1.35
2019-04-10T02:42:38.728Z,1.38
2019-04-10T02:45:42.508Z,1.37
2019-04-10T02:48:47.734Z,1.39
2019-04-10T02:51:51.949Z,1.36
2019-04-10T02:54:55.598Z,1.38
2019-04-10T02:58:00.840Z,1.39
2019-04-10T03:01:05.004Z,1.40
2019-04-10T03:04:09.766Z,1.43
2019-04-10T03:07:15.664Z,1.43
2019-04-10T03:10:26.558Z,1.43
2019-04-10T03:13:26.888Z,1.45
2019-04-10T03:16:31.221Z,1.49
2019-04-10T03:19:35.862Z,1.51
2019-04-10T03:22:40.899Z,1.51
2019-04-10T03:25:45.481Z,1.53
2019-04-10T03:28:49.429Z,1.53
2019-04-10T03:31:56.496Z,1.50
2019-04-10T03:35:03.093Z,1.50
2019-04-10T03:38:07.866Z,1.51
2019-04-10T03:41:10.865Z,1.51
2019-04-10T03:44:14.633Z,1.51
2019-04-10T03:47:18.266Z,1.50
2019-04-10T03:50:22.002Z,1.52
2019-04-10T03:53:26.417Z,1.50
2019-04-10T03:56:30.302Z,1.50
2019-04-10T03:59:33.870Z,1.48
2019-04-10T04:02:38.061Z,1.48
2019-04-10T04:05:42.563Z,1.45
2019-04-10T04:08:46.308Z,1.42
2019-04-10T04:11:50.329Z,1.44
2019-04-10T04:14:54.935Z,1.43
2019-04-10T04:17:58.642Z,1.44
2019-04-10T04:21:03.415Z,1.43
2019-04-10T04:24:07.314Z,1.43
2019-04-10T04:27:11.167Z,1.44
2019-04-10T04:30:14.824Z,1.43
2019-04-10T04:33:19.019Z,1.44
2019-04-10T04:36:22.922Z,1.45
2019-04-10T04:39:28.423Z,1.45
2019-04-10T04:42:32.988Z,1.44
2019-04-10T04:45:36.057Z,1.44
2019-04-10T04:48:39.724Z,1.46
2019-04-10T04:51:43.783Z,1.45
2019-04-10T04:54:47.773Z,1.46
2019-04-10T04:57:51.425Z,1.49
2019-04-10T05:00:55.056Z,1.50
2019-04-10T05:03:58.712Z,1.52
2019-04-10T05:07:02.384Z,1.55
2019-04-10T05:10:07.578Z,1.58
2019-04-10T05:13:11.248Z,1.59
2019-04-10T05:16:15.083Z,1.63
2019-04-10T05:19:19.045Z,1.65
2019-04-10T05:22:22.734Z,1.67
2019-04-10T05:25:27.311Z,1.70
2019-04-10T05:28:31.135Z,1.73
2019-04-10T05:31:34.722Z,1.75
2019-04-10T05:34:38.522Z,1.78
2019-04-10T05:37:43.479Z,1.80
2019-04-10T05:40:48.468Z,1.81
2019-04-10T05:43:53.003Z,1.81
2019-04-10T05:46:56.954Z,1.81
2019-04-10T05:50:00.638Z,1.83
2019-04-10T05:53:04.431Z,1.85
2019-04-10T05:56:08.116Z,1.86
2019-04-10T05:59:13.174Z,1.89
2019-04-10T06:02:17.861Z,1.92
2019-04-10T06:05:22.355Z,1.94
2019-04-10T06:08:26.372Z,1.97
2019-04-10T06:11:30.995Z,2.02
2019-04-10T06:14:34.537Z,2.02
2019-04-10T06:17:38.639Z,2.06
2019-04-10T06:20:42.561Z,2.09
2019-04-10T06:23:47.590Z,2.11
2019-04-10T06:26:52.048Z,2.23
2019-04-10T06:29:57.807Z,2.35
2019-04-10T06:33:02.199Z,2.46
2019-04-10T06:36:06.051Z,2.55
2019-04-10T06:39:10.798Z,2.63
2019-04-10T06:42:14.250Z,2.67
2019-04-10T06:45:18.344Z,2.69
2019-04-10T06:48:22.034Z,2.63
2019-04-10T06:51:25.854Z,2.60
2019-04-10T06:54:29.525Z,2.61
2019-04-10T06:57:45.069Z,2.62
2019-04-10T07:00:39.155Z,2.61
2019-04-10T07:03:52.660Z,2.60
2019-04-10T07:06:57.979Z,2.62
2019-04-10T07:09:55.143Z,2.79
2019-04-10T07:12:59.681Z,2.97
2019-04-10T07:16:04.203Z,3.22
2019-04-10T07:19:10.375Z,3.63
2019-04-10T07:22:15.548Z,4.28
2019-04-10T07:25:19.659Z,5.11
2019-04-10T07:28:23.812Z,5.95
2019-04-10T07:31:30.335Z,6.80
2019-04-10T07:34:34.134Z,7.36
2019-04-10T07:37:38.310Z,7.68
2019-04-10T07:40:42.906Z,8.00
2019-04-10T07:43:52.430Z,8.38
2019-04-10T07:46:52.971Z,8.46
2019-04-10T07:49:59.449Z,8.62
2019-04-10T07:53:02.170Z,8.52
2019-04-10T07:56:10.506Z,8.11
2019-04-10T07:59:11.569Z,8.00
2019-04-10T08:02:16.358Z,8.08
2019-04-10T08:05:20.965Z,7.75
2019-04-10T08:08:25.652Z,7.72
2019-04-10T08:11:29.691Z,7.78
2019-04-10T08:14:33.316Z,7.53
2019-04-10T08:17:37.074Z,7.11
2019-04-10T08:20:40.862Z,6.93
2019-04-10T08:23:44.683Z,7.10
2019-04-10T08:26:49.278Z,7.21
2019-04-10T08:29:52.978Z,7.12
2019-04-10T08:33:01.035Z,7.24
2019-04-10T08:36:03.229Z,7.14
2019-04-10T08:39:07.819Z,6.95
2019-04-10T08:42:12.696Z,6.79
2019-04-10T08:45:16.819Z,7.10
2019-04-10T08:48:20.595Z,8.15
2019-04-10T08:51:25.518Z,9.31
2019-04-10T08:54:28.979Z,9.82
2019-04-10T08:57:34.099Z,10.07
2019-04-10T09:00:38.266Z,10.36
2019-04-10T09:03:41.911Z,10.01
2019-04-10T09:06:45.929Z,9.45
2019-04-10T09:09:49.958Z,9.07
2019-04-10T09:12:54.564Z,8.69
2019-04-10T09:16:00.409Z,8.28
2019-04-10T09:19:04.474Z,7.96
2019-04-10T09:22:08.641Z,7.72
2019-04-10T09:25:13.171Z,7.52
2019-04-10T09:28:18.161Z,7.26
2019-04-10T09:31:22.140Z,7.17
2019-04-10T09:34:25.938Z,7.07
2019-04-10T09:37:31.053Z,7.00
2019-04-10T09:40:36.186Z,6.99
2019-04-10T09:43:40.156Z,6.76
2019-04-10T09:46:45.046Z,6.56
2019-04-10T09:49:49.300Z,6.48
2019-04-10T09:52:53.098Z,6.36
2019-04-10T09:55:56.898Z,6.33
2019-04-10T09:59:00.866Z,6.36
2019-04-10T10:02:04.871Z,6.53
2019-04-10T10:05:08.579Z,6.47
2019-04-10T10:08:12.716Z,6.65
2019-04-10T10:11:16.576Z,6.63
2019-04-10T10:14:21.011Z,6.41
2019-04-10T10:17:24.928Z,6.22
2019-04-10T10:20:29.660Z,6.23
2019-04-10T10:23:33.988Z,6.07
2019-04-10T10:26:37.710Z,5.97
2019-04-10T10:29:41.941Z,5.88
2019-04-10T10:32:45.714Z,5.88
2019-04-10T10:35:49.616Z,5.93
2019-04-10T10:39:05.011Z,5.96
2019-04-10T10:41:58.912Z,5.96
2019-04-10T10:45:02.938Z,6.02
2019-04-10T10:48:08.626Z,6.14
2019-04-10T10:51:12.867Z,6.12
2019-04-10T10:54:16.916Z,6.09
2019-04-10T10:57:20.550Z,6.00
2019-04-10T11:00:25.219Z,5.93
2019-04-10T11:03:30.690Z,5.94
2019-04-10T11:06:36.337Z,6.04
2019-04-10T11:09:42.128Z,6.14
2019-04-10T11:12:48.779Z,6.30
2019-04-10T11:15:53.314Z,6.47
2019-04-10T11:19:00.507Z,6.63
2019-04-10T11:22:05.187Z,6.68
2019-04-10T11:25:09.116Z,6.54
2019-04-10T11:28:14.018Z,6.41
2019-04-10T11:31:17.427Z,6.26
2019-04-10T11:34:22.610Z,6.15
2019-04-10T11:37:35.910Z,5.95
2019-04-10T11:40:34.309Z,5.93
2019-04-10T11:43:38.430Z,5.93
2019-04-10T11:46:42.295Z,5.96
2019-04-10T11:49:47.241Z,6.03
2019-04-10T11:52:53.345Z,6.12
2019-04-10T11:55:59.468Z,6.21
2019-04-10T11:59:04.420Z,6.18
2019-04-10T12:02:08.824Z,6.11
2019-04-10T12:08:46.410Z,6.31
2019-04-10T12:11:26.262Z,6.36
2019-04-10T12:14:30.218Z,6.42
2019-04-10T12:17:33.944Z,6.43
2019-04-10T12:20:37.624Z,6.49
2019-04-10T12:23:41.682Z,6.50
2019-04-10T12:26:45.248Z,6.55
2019-04-10T12:29:48.914Z,6.45
2019-04-10T12:32:52.795Z,6.46
2019-04-10T12:36:00.832Z,6.52
2019-04-10T12:39:07.891Z,6.64
2019-04-10T12:42:12.265Z,6.70
2019-04-10T12:45:15.966Z,6.70
2019-04-10T12:48:22.708Z,6.47
2019-04-10T12:51:27.703Z,6.44
2019-04-10T12:54:33.494Z,6.32
2019-04-10T12:57:37.566Z,6.26
2019-04-10T13:00:42.841Z,6.19
2019-04-10T13:03:47.340Z,6.09
2019-04-10T13:06:52.562Z,6.16
2019-04-10T13:09:58.155Z,6.22
2019-04-10T13:13:02.037Z,6.21
2019-04-10T13:16:05.731Z,6.18
2019-04-10T13:19:09.409Z,6.15
2019-04-10T13:22:13.170Z,6.19
2019-04-10T13:25:16.821Z,6.15
2019-04-10T13:28:20.473Z,6.12
2019-04-10T13:31:24.252Z,6.11
2019-04-10T13:34:29.093Z,5.99
2019-04-10T13:37:33.763Z,5.96
2019-04-10T13:40:37.577Z,5.96
2019-04-10T13:43:42.297Z,6.05
2019-04-10T13:46:46.153Z,6.05
2019-04-10T13:49:51.125Z,6.08
2019-04-10T13:52:55.470Z,6.16
2019-04-10T13:55:59.262Z,6.16
2019-04-10T13:59:03.191Z,6.24
2019-04-10T14:02:08.931Z,6.25
2019-04-10T14:05:14.288Z,6.25
2019-04-10T14:08:18.683Z,6.29
2019-04-10T14:11:22.595Z,6.28
2019-04-10T14:14:26.743Z,6.20
2019-04-10T14:17:30.916Z,5.93
2019-04-10T14:20:35.435Z,5.79
2019-04-10T14:23:39.588Z,5.58
2019-04-10T14:26:58.119Z,5.48
2019-04-10T14:30:03.027Z,5.51
2019-04-10T14:33:07.201Z,5.57
2019-04-10T14:36:11.761Z,5.55
2019-04-10T14:39:19.624Z,5.61
2019-04-10T14:42:21.108Z,5.69
2019-04-10T14:45:25.596Z,5.69
2019-04-10T14:48:32.116Z,5.74
2019-04-10T14:51:36.680Z,5.64
2019-04-10T14:54:40.762Z,5.15
2019-04-10T14:57:45.463Z,5.15
2019-04-10T15:00:49.725Z,4.92
2019-04-10T15:03:54.942Z,4.86
2019-04-10T15:06:58.123Z,4.91
2019-04-10T15:13:10.070Z,4.72
2019-04-10T15:16:10.230Z,4.73
2019-04-10T15:19:13.848Z,4.68
2019-04-10T15:22:17.831Z,4.68
2019-04-10T15:25:22.960Z,4.65
2019-04-10T15:28:28.260Z,4.62
2019-04-10T15:31:31.959Z,4.54
2019-04-10T15:34:35.806Z,4.46
2019-04-10T15:37:39.625Z,4.42
2019-04-10T15:40:44.092Z,4.34
2019-04-10T15:43:50.044Z,4.19
2019-04-10T15:46:53.347Z,4.09
2019-04-10T15:49:57.722Z,4.06
2019-04-10T15:53:02.128Z,3.96
2019-04-10T15:56:06.052Z,3.87
2019-04-10T15:59:10.185Z,3.79
2019-04-10T16:02:15.326Z,3.75
2019-04-10T16:05:19.525Z,3.74
2019-04-10T16:08:24.197Z,3.70
2019-04-10T16:11:38.388Z,3.68
2019-04-10T16:14:42.455Z,3.65
2019-04-10T16:17:52.216Z,3.55
2019-04-10T16:20:56.374Z,3.48
2019-04-10T16:24:07.416Z,3.39
2019-04-10T16:27:11.856Z,3.34
2019-04-10T16:30:17.297Z,3.26
2019-04-10T16:33:21.095Z,3.17
2019-04-10T16:36:26.321Z,3.11
2019-04-10T16:39:30.953Z,3.02
2019-04-10T16:42:34.869Z,3.07
2019-04-10T16:45:39.032Z,3.07
2019-04-10T16:48:42.732Z,2.97
2019-04-10T16:51:46.490Z,2.91
2019-04-10T16:54:51.364Z,2.88
2019-04-10T16:57:55.733Z,2.81
2019-04-10T17:01:00.112Z,2.74
2019-04-10T17:04:04.889Z,2.73
2019-04-10T17:07:08.656Z,2.70
2019-04-10T17:10:19.396Z,2.69
2019-04-10T17:13:19.323Z,2.68
2019-04-10T17:16:23.920Z,2.67
2019-04-10T17:19:28.754Z,2.63
2019-04-10T17:22:42.282Z,2.59
2019-04-10T17:25:38.271Z,2.54
2019-04-10T17:28:42.728Z,2.42
2019-04-10T17:31:46.773Z,2.31
2019-04-10T17:34:51.343Z,2.16
2019-04-10T17:37:56.187Z,2.05
2019-04-10T17:41:02.176Z,1.98
2019-04-10T17:44:05.558Z,1.85
2019-04-10T17:47:09.976Z,1.78
2019-04-10T17:50:16.243Z,1.66
2019-04-10T17:53:21.113Z,1.59
2019-04-10T17:56:26.122Z,1.49
2019-04-10T17:59:30.303Z,1.50
2019-04-10T18:02:34.755Z,1.51
2019-04-10T18:05:39.146Z,1.55
2019-04-10T18:08:43.214Z,1.60
2019-04-10T18:11:47.707Z,1.61
2019-04-10T18:14:51.556Z,1.55
2019-04-10T18:17:55.604Z,1.58
2019-04-10T18:21:01.196Z,1.62
2019-04-10T18:24:04.813Z,1.66
2019-04-10T18:27:12.910Z,1.66
2019-04-10T18:30:16.544Z,1.65
2019-04-10T18:33:20.454Z,1.66
2019-04-10T18:36:24.370Z,1.56
2019-04-10T18:39:28.379Z,1.57
2019-04-10T18:42:32.893Z,1.70
2019-04-10T18:45:39.387Z,1.69
2019-04-10T18:48:45.616Z,1.68
2019-04-10T18:51:48.560Z,1.66
2019-04-10T18:54:52.445Z,1.63
2019-04-10T18:57:56.920Z,1.61
2019-04-10T19:01:18.952Z,1.60
2019-04-10T19:04:27.365Z,1.55
2019-04-10T19:07:32.260Z,1.52
2019-04-10T19:10:36.784Z,1.47
2019-04-10T19:13:40.815Z,1.50
2019-04-10T19:16:45.796Z,1.48
2019-04-10T19:19:50.782Z,1.44
2019-04-10T19:22:55.030Z,1.40
2019-04-10T19:25:58.973Z,1.36
2019-04-10T19:29:03.308Z,1.34
2019-04-10T19:32:09.922Z,1.33
2019-04-10T19:35:14.828Z,1.28
2019-04-10T19:38:19.001Z,1.21
2019-04-10T19:41:29.667Z,1.12
2019-04-10T19:44:28.974Z,1.03
2019-04-10T19:47:32.685Z,0.98
2019-04-10T19:50:37.320Z,0.90
2019-04-10T19:53:41.541Z,0.86
2019-04-10T19:56:45.298Z,0.80
2019-04-10T19:59:50.035Z,0.69
2019-04-10T20:02:55.286Z,0.62
2019-04-10T20:05:58.930Z,0.54
2019-04-10T20:09:04.193Z,0.48
2019-04-10T20:12:08.576Z,0.44
2019-04-10T20:15:12.372Z,0.42
2019-04-10T20:18:16.770Z,0.37
2019-04-10T20:21:20.681Z,0.31
2019-04-10T20:24:25.032Z,0.26
2019-04-10T20:27:28.848Z,0.21
2019-04-10T20:30:33.408Z,0.17
2019-04-10T20:33:37.084Z,0.16
2019-04-10T20:36:41.624Z,0.14
2019-04-10T20:39:45.439Z,0.12
2019-04-10T20:42:50.580Z,0.08
2019-04-10T20:45:55.856Z,0.03
2019-04-10T20:49:00.571Z,-0.02
2019-04-10T20:52:04.586Z,-0.06
2019-04-10T20:55:09.107Z,-0.11
2019-04-10T20:58:13.394Z,-0.16
2019-04-10T21:01:20.343Z,-0.21
2019-04-10T21:04:25.442Z,-0.27
2019-04-10T21:07:29.820Z,-0.31
2019-04-10T21:10:33.819Z,-0.32
2019-04-10T21:13:38.420Z,-0.34
2019-04-10T21:16:42.306Z,-0.37
2019-04-10T21:19:46.062Z,-0.39
2019-04-10T21:22:53.442Z,-0.39
2019-04-10T21:25:57.650Z,-0.40
2019-04-10T21:32:43.458Z,-0.46
2019-04-10T21:35:47.716Z,-0.51
2019-04-10T21:38:52.555Z,-0.54
2019-04-10T21:42:08.399Z,-0.56
2019-04-10T21:45:01.950Z,-0.58
2019-04-10T21:48:06.391Z,-0.62
2019-04-10T21:51:10.866Z,-0.62
2019-04-10T21:54:14.874Z,-0.65
2019-04-10T21:57:18.586Z,-0.70
2019-04-10T22:00:24.089Z,-0.70
2019-04-10T22:03:27.913Z,-0.67
2019-04-10T22:06:39.785Z,-0.63
2019-04-10T22:10:01.732Z,-0.59
2019-04-10T22:13:05.907Z,-0.50
2019-04-10T22:16:11.538Z,-0.43
2019-04-10T22:19:16.625Z,-0.35
2019-04-10T22:22:20.576Z,-0.33
2019-04-10T22:25:24.268Z,-0.23
2019-04-10T22:28:28.731Z,-0.18
2019-04-10T22:31:33.067Z,-0.13
2019-04-10T22:34:38.384Z,-0.10
2019-04-10T22:37:42.106Z,-0.08
2019-04-10T22:40:46.246Z,-0.05
2019-04-10T22:43:50.098Z,0.00
2019-04-10T22:46:54.443Z,0.04
2019-04-10T22:49:58.148Z,0.07
2019-04-10T22:53:01.983Z,0.09
2019-04-10T22:56:06.836Z,0.09
2019-04-10T22:59:10.865Z,0.10
2019-04-10T23:02:16.111Z,0.10
2019-04-10T23:05:20.432Z,0.12
2019-04-10T23:08:25.331Z,0.12
2019-04-10T23:11:35.497Z,0.16
2019-04-10T23:14:34.529Z,0.20
2019-04-10T23:17:38.994Z,0.27
2019-04-10T23:20:43.853Z,0.27
2019-04-10T23:23:47.341Z,0.29
2019-04-10T23:26:53.347Z,0.31
2019-04-10T23:29:57.139Z,0.34
2019-04-10T23:33:02.362Z,0.36
2019-04-10T23:36:06.027Z,0.40
2019-04-10T23:39:10.101Z,0.37
2019-04-10T23:42:14.898Z,0.36
2019-04-10T23:45:18.062Z,0.35
2019-04-10T23:48:22.493Z,0.37
2019-04-10T23:51:27.353Z,0.35
2019-04-10T23:54:31.200Z,0.33
2019-04-10T23:57:35.681Z,0.33
